sensor_id;sensor_type;location;lat;lon;timestamp;pressure;altitude;pressure_sealevel;temperature
76394;BMP180;65216;51.090;-115.352;2023-02-18T00:01:54;86493.80;;;21.70
76394;BMP180;65216;51.090;-115.352;2023-02-18T00:04:21;86487.80;;;21.70
76394;BMP180;65216;51.090;-115.352;2023-02-18T00:06:49;86482.40;;;21.68
76394;BMP180;65216;51.090;-115.352;2023-02-18T00:09:19;86470.00;;;21.66
76394;BMP180;65216;51.090;-115.352;2023-02-18T00:11:47;86471.40;;;21.62
76394;BMP180;65216;51.090;-115.352;2023-02-18T00:14:16;86462.80;;;21.60
76394;BMP180;65216;51.090;-115.352;2023-02-18T00:16:44;86459.80;;;21.60
76394;BMP180;65216;51.090;-115.352;2023-02-18T00:19:16;86458.40;;;21.60
76394;BMP180;65216;51.090;-115.352;2023-02-18T00:21:47;86462.40;;;21.60
76394;BMP180;65216;51.090;-115.352;2023-02-18T00:24:15;86458.80;;;21.60
76394;BMP180;65216;51.090;-115.352;2023-02-18T00:26:43;86466.20;;;21.60
76394;BMP180;65216;51.090;-115.352;2023-02-18T00:29:16;86451.40;;;21.60
76394;BMP180;65216;51.090;-115.352;2023-02-18T00:31:44;86441.40;;;21.60
76394;BMP180;65216;51.090;-115.352;2023-02-18T00:34:13;86459.00;;;21.56
76394;BMP180;65216;51.090;-115.352;2023-02-18T00:36:41;86462.40;;;21.50
76394;BMP180;65216;51.090;-115.352;2023-02-18T00:39:10;86449.40;;;21.52
76394;BMP180;65216;51.090;-115.352;2023-02-18T00:41:40;86448.20;;;21.50
76394;BMP180;65216;51.090;-115.352;2023-02-18T00:44:08;86461.60;;;21.50
76394;BMP180;65216;51.090;-115.352;2023-02-18T00:46:41;86445.00;;;21.50
76394;BMP180;65216;51.090;-115.352;2023-02-18T00:49:11;86437.60;;;21.50
76394;BMP180;65216;51.090;-115.352;2023-02-18T00:51:39;86442.60;;;21.50
76394;BMP180;65216;51.090;-115.352;2023-02-18T00:54:07;86450.60;;;21.50
76394;BMP180;65216;51.090;-115.352;2023-02-18T00:56:34;86464.80;;;21.40
76394;BMP180;65216;51.090;-115.352;2023-02-18T00:59:02;86458.40;;;21.40
76394;BMP180;65216;51.090;-115.352;2023-02-18T01:01:30;86455.80;;;21.40
76394;BMP180;65216;51.090;-115.352;2023-02-18T01:03:58;86461.80;;;21.40
76394;BMP180;65216;51.090;-115.352;2023-02-18T01:06:25;86478.20;;;21.40
76394;BMP180;65216;51.090;-115.352;2023-02-18T01:08:52;86454.60;;;21.40
76394;BMP180;65216;51.090;-115.352;2023-02-18T01:11:20;86474.00;;;21.40
76394;BMP180;65216;51.090;-115.352;2023-02-18T01:13:50;86465.60;;;21.40
76394;BMP180;65216;51.090;-115.352;2023-02-18T01:16:21;86461.80;;;21.40
76394;BMP180;65216;51.090;-115.352;2023-02-18T01:18:48;86480.00;;;21.40
76394;BMP180;65216;51.090;-115.352;2023-02-18T01:21:21;86483.00;;;21.40
76394;BMP180;65216;51.090;-115.352;2023-02-18T01:23:49;86470.40;;;21.36
76394;BMP180;65216;51.090;-115.352;2023-02-18T01:26:16;86470.80;;;21.36
76394;BMP180;65216;51.090;-115.352;2023-02-18T01:28:44;86476.20;;;21.32
76394;BMP180;65216;51.090;-115.352;2023-02-18T01:31:13;86455.80;;;21.32
76394;BMP180;65216;51.090;-115.352;2023-02-18T01:33:41;86460.60;;;21.34
76394;BMP180;65216;51.090;-115.352;2023-02-18T01:36:16;86467.20;;;21.30
76394;BMP180;65216;51.090;-115.352;2023-02-18T01:38:44;86476.60;;;21.32
76394;BMP180;65216;51.090;-115.352;2023-02-18T01:41:11;86460.80;;;21.30
76394;BMP180;65216;51.090;-115.352;2023-02-18T01:43:44;86472.80;;;21.30
76394;BMP180;65216;51.090;-115.352;2023-02-18T01:46:21;86472.40;;;21.30
76394;BMP180;65216;51.090;-115.352;2023-02-18T01:48:57;86465.00;;;21.30
76394;BMP180;65216;51.090;-115.352;2023-02-18T01:51:48;86459.40;;;21.30
76394;BMP180;65216;51.090;-115.352;2023-02-18T01:57:06;86456.60;;;21.30
76394;BMP180;65216;51.090;-115.352;2023-02-18T02:00:04;86459.60;;;21.30
76394;BMP180;65216;51.090;-115.352;2023-02-18T02:02:30;86442.20;;;21.30
76394;BMP180;65216;51.090;-115.352;2023-02-18T02:05:01;86463.60;;;21.30
76394;BMP180;65216;51.090;-115.352;2023-02-18T02:07:31;86466.00;;;21.30
76394;BMP180;65216;51.090;-115.352;2023-02-18T02:09:59;86464.40;;;21.30
76394;BMP180;65216;51.090;-115.352;2023-02-18T02:21:29;86433.20;;;21.30
76394;BMP180;65216;51.090;-115.352;2023-02-18T02:24:12;86449.20;;;21.30
76394;BMP180;65216;51.090;-115.352;2023-02-18T02:30:30;86452.80;;;21.30
76394;BMP180;65216;51.090;-115.352;2023-02-18T02:42:28;86419.80;;;21.30
76394;BMP180;65216;51.090;-115.352;2023-02-18T02:56:42;86429.20;;;21.20
76394;BMP180;65216;51.090;-115.352;2023-02-18T02:59:24;86423.80;;;21.20
76394;BMP180;65216;51.090;-115.352;2023-02-18T03:02:12;86427.20;;;21.20
76394;BMP180;65216;51.090;-115.352;2023-02-18T03:05:14;86429.40;;;21.20
76394;BMP180;65216;51.090;-115.352;2023-02-18T03:11:18;86421.40;;;21.20
76394;BMP180;65216;51.090;-115.352;2023-02-18T03:16:49;86421.20;;;21.20
76394;BMP180;65216;51.090;-115.352;2023-02-18T03:25:01;86411.20;;;21.20
76394;BMP180;65216;51.090;-115.352;2023-02-18T03:27:36;86409.00;;;21.20
76394;BMP180;65216;51.090;-115.352;2023-02-18T03:32:36;86411.40;;;21.20
76394;BMP180;65216;51.090;-115.352;2023-02-18T03:35:14;86409.00;;;21.10
76394;BMP180;65216;51.090;-115.352;2023-02-18T03:37:49;86384.00;;;21.12
76394;BMP180;65216;51.090;-115.352;2023-02-18T03:40:19;86371.20;;;21.12
76394;BMP180;65216;51.090;-115.352;2023-02-18T03:42:49;86381.80;;;21.10
76394;BMP180;65216;51.090;-115.352;2023-02-18T03:45:16;86373.00;;;21.10
76394;BMP180;65216;51.090;-115.352;2023-02-18T03:47:44;86375.20;;;21.10
76394;BMP180;65216;51.090;-115.352;2023-02-18T03:50:12;86376.60;;;21.10
76394;BMP180;65216;51.090;-115.352;2023-02-18T03:52:42;86375.60;;;21.10
76394;BMP180;65216;51.090;-115.352;2023-02-18T03:55:09;86374.40;;;21.10
76394;BMP180;65216;51.090;-115.352;2023-02-18T03:57:37;86384.60;;;21.10
76394;BMP180;65216;51.090;-115.352;2023-02-18T04:00:08;86387.20;;;21.10
76394;BMP180;65216;51.090;-115.352;2023-02-18T04:02:37;86388.20;;;21.10
76394;BMP180;65216;51.090;-115.352;2023-02-18T04:05:04;86364.20;;;21.10
76394;BMP180;65216;51.090;-115.352;2023-02-18T04:07:35;86359.00;;;21.10
76394;BMP180;65216;51.090;-115.352;2023-02-18T04:10:04;86368.60;;;21.10
76394;BMP180;65216;51.090;-115.352;2023-02-18T04:12:32;86352.60;;;21.10
76394;BMP180;65216;51.090;-115.352;2023-02-18T04:14:59;86351.80;;;21.10
76394;BMP180;65216;51.090;-115.352;2023-02-18T04:17:30;86356.80;;;21.06
76394;BMP180;65216;51.090;-115.352;2023-02-18T04:19:58;86369.40;;;21.00
76394;BMP180;65216;51.090;-115.352;2023-02-18T04:22:30;86367.80;;;21.00
76394;BMP180;65216;51.090;-115.352;2023-02-18T04:24:57;86348.80;;;21.00
76394;BMP180;65216;51.090;-115.352;2023-02-18T04:27:26;86355.20;;;21.00
76394;BMP180;65216;51.090;-115.352;2023-02-18T04:29:53;86346.20;;;21.00
76394;BMP180;65216;51.090;-115.352;2023-02-18T04:32:21;86345.20;;;21.00
76394;BMP180;65216;51.090;-115.352;2023-02-18T04:34:48;86354.20;;;21.00
76394;BMP180;65216;51.090;-115.352;2023-02-18T04:37:15;86337.00;;;21.00
76394;BMP180;65216;51.090;-115.352;2023-02-18T04:39:42;86328.80;;;21.00
76394;BMP180;65216;51.090;-115.352;2023-02-18T04:42:12;86310.80;;;20.98
76394;BMP180;65216;51.090;-115.352;2023-02-18T04:44:40;86313.00;;;20.90
76394;BMP180;65216;51.090;-115.352;2023-02-18T04:47:08;86308.60;;;20.90
76394;BMP180;65216;51.090;-115.352;2023-02-18T04:49:36;86305.00;;;20.90
76394;BMP180;65216;51.090;-115.352;2023-02-18T04:52:03;86295.40;;;20.90
76394;BMP180;65216;51.090;-115.352;2023-02-18T04:54:34;86290.20;;;20.90
76394;BMP180;65216;51.090;-115.352;2023-02-18T04:57:01;86296.80;;;20.90
76394;BMP180;65216;51.090;-115.352;2023-02-18T04:59:29;86283.60;;;20.90
76394;BMP180;65216;51.090;-115.352;2023-02-18T05:01:56;86281.40;;;20.90
76394;BMP180;65216;51.090;-115.352;2023-02-18T05:04:23;86291.60;;;20.90
76394;BMP180;65216;51.090;-115.352;2023-02-18T05:06:53;86295.00;;;20.90
76394;BMP180;65216;51.090;-115.352;2023-02-18T05:09:21;86291.20;;;20.86
76394;BMP180;65216;51.090;-115.352;2023-02-18T05:11:48;86300.60;;;20.82
76394;BMP180;65216;51.090;-115.352;2023-02-18T05:14:19;86297.00;;;20.80
76394;BMP180;65216;51.090;-115.352;2023-02-18T05:16:49;86295.60;;;20.80
76394;BMP180;65216;51.090;-115.352;2023-02-18T05:19:17;86299.20;;;20.80
76394;BMP180;65216;51.090;-115.352;2023-02-18T05:21:48;86291.80;;;20.80
76394;BMP180;65216;51.090;-115.352;2023-02-18T05:24:19;86295.80;;;20.80
76394;BMP180;65216;51.090;-115.352;2023-02-18T05:26:46;86298.80;;;20.80
76394;BMP180;65216;51.090;-115.352;2023-02-18T05:29:13;86286.40;;;20.80
76394;BMP180;65216;51.090;-115.352;2023-02-18T05:31:40;86289.60;;;20.80
76394;BMP180;65216;51.090;-115.352;2023-02-18T05:34:13;86287.40;;;20.80
76394;BMP180;65216;51.090;-115.352;2023-02-18T05:36:41;86289.20;;;20.80
76394;BMP180;65216;51.090;-115.352;2023-02-18T05:39:14;86284.20;;;20.76
76394;BMP180;65216;51.090;-115.352;2023-02-18T05:41:41;86267.60;;;20.70
76394;BMP180;65216;51.090;-115.352;2023-02-18T05:44:09;86263.40;;;20.70
76394;BMP180;65216;51.090;-115.352;2023-02-18T05:46:57;86271.00;;;20.70
76394;BMP180;65216;51.090;-115.352;2023-02-18T05:49:30;86280.80;;;20.70
76394;BMP180;65216;51.090;-115.352;2023-02-18T05:51:58;86269.40;;;20.70
76394;BMP180;65216;51.090;-115.352;2023-02-18T05:54:26;86258.40;;;20.70
76394;BMP180;65216;51.090;-115.352;2023-02-18T05:56:54;86266.80;;;20.70
76394;BMP180;65216;51.090;-115.352;2023-02-18T05:59:24;86273.00;;;20.70
76394;BMP180;65216;51.090;-115.352;2023-02-18T06:01:54;86264.80;;;20.70
76394;BMP180;65216;51.090;-115.352;2023-02-18T06:04:27;86259.00;;;20.70
76394;BMP180;65216;51.090;-115.352;2023-02-18T06:06:55;86261.60;;;20.70
76394;BMP180;65216;51.090;-115.352;2023-02-18T06:09:23;86257.60;;;20.70
76394;BMP180;65216;51.090;-115.352;2023-02-18T06:11:53;86242.20;;;20.70
76394;BMP180;65216;51.090;-115.352;2023-02-18T06:14:23;86255.00;;;20.70
76394;BMP180;65216;51.090;-115.352;2023-02-18T06:16:50;86250.20;;;20.70
76394;BMP180;65216;51.090;-115.352;2023-02-18T06:19:17;86263.20;;;20.70
76394;BMP180;65216;51.090;-115.352;2023-02-18T06:21:45;86244.20;;;20.70
76394;BMP180;65216;51.090;-115.352;2023-02-18T06:24:16;86248.20;;;20.68
76394;BMP180;65216;51.090;-115.352;2023-02-18T06:26:46;86242.60;;;20.62
76394;BMP180;65216;51.090;-115.352;2023-02-18T06:29:18;86237.40;;;20.70
76394;BMP180;65216;51.090;-115.352;2023-02-18T06:31:46;86219.20;;;20.60
76394;BMP180;65216;51.090;-115.352;2023-02-18T06:34:13;86217.60;;;20.60
76394;BMP180;65216;51.090;-115.352;2023-02-18T06:36:41;86217.00;;;20.60
76394;BMP180;65216;51.090;-115.352;2023-02-18T06:39:08;86213.00;;;20.60
76394;BMP180;65216;51.090;-115.352;2023-02-18T06:41:36;86212.00;;;20.60
76394;BMP180;65216;51.090;-115.352;2023-02-18T06:44:07;86210.00;;;20.60
76394;BMP180;65216;51.090;-115.352;2023-02-18T06:46:37;86204.40;;;20.60
76394;BMP180;65216;51.090;-115.352;2023-02-18T06:49:04;86197.20;;;20.60
76394;BMP180;65216;51.090;-115.352;2023-02-18T06:51:32;86191.20;;;20.60
76394;BMP180;65216;51.090;-115.352;2023-02-18T06:54:03;86192.60;;;20.60
76394;BMP180;65216;51.090;-115.352;2023-02-18T06:56:31;86188.00;;;20.60
76394;BMP180;65216;51.090;-115.352;2023-02-18T06:58:59;86180.60;;;20.60
76394;BMP180;65216;51.090;-115.352;2023-02-18T07:01:26;86171.40;;;20.60
76394;BMP180;65216;51.090;-115.352;2023-02-18T07:03:57;86186.40;;;20.60
76394;BMP180;65216;51.090;-115.352;2023-02-18T07:06:26;86181.80;;;20.60
76394;BMP180;65216;51.090;-115.352;2023-02-18T07:08:54;86173.20;;;20.60
76394;BMP180;65216;51.090;-115.352;2023-02-18T07:11:21;86164.00;;;20.60
76394;BMP180;65216;51.090;-115.352;2023-02-18T07:13:49;86161.20;;;20.60
76394;BMP180;65216;51.090;-115.352;2023-02-18T07:16:16;86160.00;;;20.60
76394;BMP180;65216;51.090;-115.352;2023-02-18T07:18:46;86171.80;;;20.60
76394;BMP180;65216;51.090;-115.352;2023-02-18T07:21:15;86160.20;;;20.60
76394;BMP180;65216;51.090;-115.352;2023-02-18T07:23:42;86148.80;;;20.60
76394;BMP180;65216;51.090;-115.352;2023-02-18T07:26:13;86151.20;;;20.60
76394;BMP180;65216;51.090;-115.352;2023-02-18T07:28:41;86155.20;;;20.60
76394;BMP180;65216;51.090;-115.352;2023-02-18T07:31:09;86155.20;;;20.60
76394;BMP180;65216;51.090;-115.352;2023-02-18T07:33:37;86145.80;;;20.60
76394;BMP180;65216;51.090;-115.352;2023-02-18T07:36:08;86141.20;;;20.60
76394;BMP180;65216;51.090;-115.352;2023-02-18T07:38:35;86133.20;;;20.60
76394;BMP180;65216;51.090;-115.352;2023-02-18T07:41:02;86133.00;;;20.60
76394;BMP180;65216;51.090;-115.352;2023-02-18T07:43:35;86140.60;;;20.60
76394;BMP180;65216;51.090;-115.352;2023-02-18T07:46:06;86131.20;;;20.60
76394;BMP180;65216;51.090;-115.352;2023-02-18T07:48:33;86113.40;;;20.60
76394;BMP180;65216;51.090;-115.352;2023-02-18T07:51:04;86108.80;;;20.60
76394;BMP180;65216;51.090;-115.352;2023-02-18T07:53:31;86112.40;;;20.60
76394;BMP180;65216;51.090;-115.352;2023-02-18T07:56:00;86114.40;;;20.60
76394;BMP180;65216;51.090;-115.352;2023-02-18T07:58:33;86105.20;;;20.60
76394;BMP180;65216;51.090;-115.352;2023-02-18T08:01:06;86108.00;;;20.58
76394;BMP180;65216;51.090;-115.352;2023-02-18T08:03:35;86110.60;;;20.60
76394;BMP180;65216;51.090;-115.352;2023-02-18T08:06:12;86105.00;;;20.56
76394;BMP180;65216;51.090;-115.352;2023-02-18T08:08:48;86101.60;;;20.50
76394;BMP180;65216;51.090;-115.352;2023-02-18T08:11:15;86095.80;;;20.50
76394;BMP180;65216;51.090;-115.352;2023-02-18T08:13:42;86093.40;;;20.50
76394;BMP180;65216;51.090;-115.352;2023-02-18T08:16:10;86087.80;;;20.52
76394;BMP180;65216;51.090;-115.352;2023-02-18T08:18:38;86088.00;;;20.50
76394;BMP180;65216;51.090;-115.352;2023-02-18T08:21:05;86091.40;;;20.50
76394;BMP180;65216;51.090;-115.352;2023-02-18T08:23:32;86091.80;;;20.50
76394;BMP180;65216;51.090;-115.352;2023-02-18T08:26:00;86093.40;;;20.50
76394;BMP180;65216;51.090;-115.352;2023-02-18T08:28:30;86085.60;;;20.50
76394;BMP180;65216;51.090;-115.352;2023-02-18T08:30:58;86095.00;;;20.50
76394;BMP180;65216;51.090;-115.352;2023-02-18T08:33:26;86089.60;;;20.50
76394;BMP180;65216;51.090;-115.352;2023-02-18T08:35:54;86085.20;;;20.50
76394;BMP180;65216;51.090;-115.352;2023-02-18T08:38:23;86082.60;;;20.50
76394;BMP180;65216;51.090;-115.352;2023-02-18T08:40:59;86078.60;;;20.50
76394;BMP180;65216;51.090;-115.352;2023-02-18T08:43:27;86078.80;;;20.50
76394;BMP180;65216;51.090;-115.352;2023-02-18T08:45:56;86076.40;;;20.50
76394;BMP180;65216;51.090;-115.352;2023-02-18T08:48:25;86074.20;;;20.50
76394;BMP180;65216;51.090;-115.352;2023-02-18T08:50:53;86075.60;;;20.50
76394;BMP180;65216;51.090;-115.352;2023-02-18T08:53:21;86073.60;;;20.50
76394;BMP180;65216;51.090;-115.352;2023-02-18T08:55:48;86074.80;;;20.50
76394;BMP180;65216;51.090;-115.352;2023-02-18T08:58:16;86076.80;;;20.50
76394;BMP180;65216;51.090;-115.352;2023-02-18T09:00:44;86075.60;;;20.50
76394;BMP180;65216;51.090;-115.352;2023-02-18T09:38:27;86050.80;;;20.50
76394;BMP180;65216;51.090;-115.352;2023-02-18T09:49:05;86055.20;;;20.50
76394;BMP180;65216;51.090;-115.352;2023-02-18T13:50:55;86026.60;;;19.70
76394;BMP180;65216;51.090;-115.352;2023-02-18T15:47:15;86098.40;;;19.80
